DW6479 Weather Reports


time (UTC)temp
C
wind
direction
speed
KPH
gust
KPH
rain 1hr
cm
rain 24hr
cm
rain mn
cm
humidity
%
barometer
mb
20190421001130 22 90 8.0 9.7 0.13 0.74 0.18 85 1022.6
20190421000706 21 90 4.8 6.4 0.13 0.74 0.18 84 1022.6
20190421000128 21 45 1.6 3.2 0.13 0.74 0.18 84 1022.5
20190420235627 22 90 8.0 14.5 0.13 0.74 0.18 84 1022.7
20190420235126 22 90 4.8 8.0 0.13 0.74 0.18 81 1022.7
20190420234625 22 0 3.2 4.8 0.13 0.74 0.18 78 1022.7
20190420234124 22 90 1.6 3.2 0.13 0.74 0.18 76 1022.8
20190420233623 22 45 6.4 9.7 0.10 0.71 0.13 74 1022.8
20190420233122 23 45 4.8 6.4 0.03 0.61 0.05 72 1022.8
20190420232621 24 90 4.8 6.4 0.03 0.61 0.05 70 1022.7
20190420232120 24 90 4.8 6.4 0.03 0.61 0.05 70 1022.8
20190420231619 24 90 11.3 12.9 0.00 0.58 0.03 69 1022.6
20190420231118 24 45 6.4 9.7 0.00 0.58 0.03 69 1022.6
20190420230617 -17 0.0 0.0 0.00 0.58 0.03 1022.5
20190420230116 25 90 9.7 12.9 0.00 0.58 0.03 70 1022.8
20190420225615 25 90 9.7 12.9 0.00 0.58 0.03 70 1022.7
20190420225114 -17 0.0 0.0 0.00 0.58 0.03 1022.7
20190420224612 -17 0.0 0.0 0.00 0.58 0.03 1022.6
20190420224111 -17 0.0 0.0 0.00 0.58 0.03 1022.6
20190420223611 -17 0.0 0.0 0.00 0.58 0.03 1022.6
20190420223110 -17 0.0 0.0 0.00 0.58 0.03 1022.6
20190420222608 -17 0.0 0.0 0.00 0.58 0.03 1022.7
20190420222107 -17 0.0 0.0 0.00 0.58 0.03 1022.7
20190420221606 -17 0.0 0.0 0.00 0.58 0.03 1022.8
20190420221105 -17 0.0 0.0 0.00 0.58 0.03 1022.7
20190420220605 -17 0.0 0.0 0.00 0.58 0.03 1022.7
20190420220103 -17 0.0 0.0 0.00 0.58 0.03 1022.7
20190420215602 22 180 9.7 9.7 0.00 0.58 0.03 76 1022.6
20190420215101 22 180 9.7 9.7 0.00 0.58 0.03 76 1022.6
20190420214600 -17 0.0 0.0 0.00 0.58 0.03 1022.5
20190420214059 -17 0.0 0.0 0.00 0.58 0.03 1022.4
20190420213558 21 45 6.4 9.7 0.00 0.58 0.03 86 1022.5
20190420213057 21 45 6.4 9.7 0.00 0.58 0.03 86 1022.4
20190420212556 21 135 8.0 9.7 0.00 0.58 0.03 88 1022.4
20190420212054 20 135 8.0 11.3 0.00 0.58 0.03 91 1022.6
20190420211554 20 0 4.8 8.0 0.00 0.58 0.03 92 1022.4
20190420211052 20 180 3.2 4.8 0.00 0.58 0.03 92 1022.3
20190420210551 20 225 3.2 4.8 0.00 0.58 0.03 92 1022.3
20190420210050 20 270 0.0 1.6 0.00 0.58 0.03 92 1022.3
20190420205549 19 180 1.6 3.2 0.00 0.58 0.03 92 1022.1
20190420205048 19 270 3.2 4.8 0.00 0.58 0.03 92 1022.2
20190420204547 19 180 1.6 3.2 0.00 0.58 0.03 91 1022.0
20190420204046 19 315 4.8 4.8 0.00 0.58 0.03 91 1022.1
20190420203545 19 270 3.2 4.8 0.00 0.58 0.03 91 1022.0
20190420203044 19 225 3.2 4.8 0.00 0.58 0.03 91 1021.9
20190420202543 19 180 3.2 4.8 0.00 0.58 0.03 91 1022.0
20190420202042 19 225 1.6 3.2 0.00 0.58 0.03 90 1021.8
20190420201541 19 225 1.6 3.2 0.00 0.58 0.03 90 1021.8
20190420201040 19 180 1.6 3.2 0.00 0.58 0.03 90 1021.8
20190420200543 19 180 1.6 3.2 0.00 0.58 0.03 90 1021.8
20190420200038 20 225 3.2 4.8 0.00 0.58 0.03 90 1021.5
20190420195537 20 225 1.6 3.2 0.00 0.58 0.03 90 1021.6
20190420195035 20 180 1.6 3.2 0.00 0.58 0.03 90 1021.5
20190420194535 20 225 4.8 4.8 0.00 0.58 0.03 90 1021.4
20190420194033 20 225 3.2 4.8 0.00 0.58 0.03 90 1021.4
20190420193532 20 225 4.8 4.8 0.00 0.58 0.03 90 1021.3
20190420193031 20 180 1.6 4.8 0.00 0.58 0.03 90 1021.2
20190420192530 20 180 3.2 4.8 0.00 0.58 0.03 90 1021.3
20190420192029 20 225 3.2 4.8 0.00 0.58 0.03 90 1021.2
20190420191528 20 225 1.6 3.2 0.00 0.58 0.03 90 1021.2
20190420191027 20 225 3.2 4.8 0.00 0.58 0.03 90 1021.2
20190420190526 20 135 0.0 3.2 0.00 0.58 0.03 91 1021.0
20190420190025 20 180 3.2 4.8 0.00 0.58 0.03 91 1021.0
20190420185524 20 180 1.6 4.8 0.00 0.58 0.03 91 1020.8
20190420185022 20 180 3.2 4.8 0.00 0.58 0.03 92 1020.8
20190420184521 20 225 3.2 4.8 0.00 0.58 0.03 92 1020.9
20190420184020 20 202 4.8 6.4 0.00 0.58 0.03 92 1020.9
20190420183519 20 225 4.8 6.4 0.00 0.58 0.03 93 1020.8
20190420183019 20 180 3.2 4.8 0.00 0.58 0.03 93 1020.8
20190420182517 20 157 4.8 6.4 0.00 0.58 0.03 93 1020.7
20190420182016 20 157 3.2 4.8 0.00 0.58 0.03 93 1020.7
20190420181515 20 135 0.0 3.2 0.00 0.58 0.03 93 1020.8
20190420180514 20 90 4.8 6.4 0.00 0.58 0.03 94 1020.6
20190420175512 20 225 4.8 8.0 0.00 0.58 0.03 94 1020.7
20190420174511 20 135 4.8 4.8 0.03 0.58 0.03 94 1020.6
20190420173509 20 225 3.2 4.8 0.03 0.58 0.03 94 1020.5
20190420172508 20 90 4.8 6.4 0.03 0.58 0.03 94 1020.6
20190420171507 20 135 4.8 4.8 0.03 0.58 0.03 95 1020.7
20190420170505 20 45 4.8 8.0 0.03 0.58 0.03 95 1020.6
20190420165504 20 90 4.8 4.8 0.03 0.58 0.03 95 1020.9
20190420164503 20 90 3.2 4.8 0.00 0.56 0.00 95 1020.9
20190420164001 20 180 6.4 8.0 0.00 0.56 0.00 95 1020.9
20190420163500 20 202 3.2 4.8 0.00 0.56 0.00 95 1020.9
20190420163000 20 225 3.2 4.8 0.00 0.56 0.00 95 1021.0
20190420162458 20 135 4.8 8.0 0.00 0.56 0.00 95 1021.1
20190420161957 20 202 4.8 4.8 0.00 0.56 0.00 95 1021.2
20190420161456 20 180 1.6 3.2 0.00 0.56 0.00 94 1021.1
20190420160956 20 90 4.8 4.8 0.00 0.56 0.00 94 1021.1
20190420160454 20 180 4.8 4.8 0.00 0.56 0.00 94 1021.0
20190420155953 20 180 4.8 6.4 0.00 0.56 0.00 94 1021.2
20190420155452 20 225 4.8 4.8 0.00 0.56 0.00 93 1021.2
20190420154951 20 180 4.8 8.0 0.00 0.56 0.00 93 1021.3
20190420154450 20 180 3.2 4.8 0.00 0.56 0.00 93 1021.4
20190420153949 20 225 0.0 3.2 0.00 0.56 0.00 93 1021.3
20190420153447 20 270 1.6 3.2 0.00 0.56 0.00 93 1021.4
20190420152946 20 225 0.0 1.6 0.00 0.56 0.00 93 1021.5
20190420152445 20 0.0 0.0 0.00 0.58 0.00 93 1021.6
20190420151944 20 0.0 0.0 0.00 0.58 0.00 93 1021.5
20190420151443 20 45 0.0 1.6 0.00 0.58 0.00 93 1021.8
20190420150942 20 0.0 0.0 0.00 0.58 0.00 93 1021.7
20190420150442 20 180 1.6 3.2 0.00 0.58 0.00 93 1021.7
20190420145940 20 180 1.6 3.2 0.00 0.58 0.00 93 1021.8
20190420145439 20 180 1.6 3.2 0.00 0.58 0.00 93 1022.0
20190420144938 20 180 1.6 3.2 0.00 0.58 0.00 93 1022.0
20190420144437 20 225 3.2 4.8 0.00 0.58 0.00 93 1022.1
20190420143936 20 225 1.6 3.2 0.00 0.58 0.00 93 1022.1
20190420143435 20 225 3.2 4.8 0.00 0.58 0.00 93 1022.1
20190420142934 20 180 1.6 3.2 0.00 0.58 0.00 93 1021.8
20190420142433 20 225 3.2 4.8 0.00 0.58 0.00 93 1021.8
20190420141932 20 225 0.0 1.6 0.00 0.58 0.00 93 1022.1
20190420141430 20 157 1.6 3.2 0.00 0.58 0.00 93 1022.0
20190420140929 20 180 0.0 3.2 0.00 0.58 0.00 93 1022.1
20190420140428 20 180 0.0 3.2 0.00 0.58 0.00 93 1021.9
20190420135928 20 180 3.2 4.8 0.00 0.58 0.58 93 1021.9
20190420135427 20 180 1.6 3.2 0.00 0.58 0.58 93 1022.0
20190420134926 20 157 4.8 4.8 0.00 0.58 0.58 93 1022.0
20190420134424 20 225 3.2 4.8 0.00 0.58 0.58 94 1021.9
20190420133924 20 0 0.0 1.6 0.00 0.58 0.58 94 1022.1
20190420133422 20 225 1.6 3.2 0.00 0.58 0.58 94 1022.0
20190420132921 20 45 0.0 1.6 0.00 0.58 0.58 94 1021.9
20190420132420 20 225 0.0 1.6 0.00 0.58 0.58 94 1021.9
20190420131919 20 157 4.8 4.8 0.00 0.58 0.58 94 1021.9
20190420131418 20 90 3.2 4.8 0.00 0.58 0.58 94 1022.0
20190420130917 20 135 4.8 6.4 0.00 0.58 0.58 94 1022.1
20190420130416 20 22 4.8 8.0 0.00 0.58 0.58 94 1022.0
20190420125915 20 135 4.8 4.8 0.00 0.61 0.58 94 1022.1
20190420125413 20 135 1.6 4.8 0.00 0.61 0.58 94 1022.1
20190420124913 20 180 1.6 3.2 0.00 0.61 0.58 94 1022.0
20190420124411 20 180 4.8 6.4 0.00 0.61 0.58 94 1021.9
20190420123911 20 135 8.0 9.7 0.03 0.61 0.58 94 1022.0
20190420123409 21 180 3.2 4.8 0.05 0.61 0.58 93 1022.0
20190420122908 21 180 4.8 6.4 0.38 0.61 0.58 93 1022.2
20190420122407 21 90 3.2 4.8 0.38 0.61 0.58 93 1022.3
20190420121906 21 45 1.6 3.2 0.38 0.61 0.58 93 1022.2
20190420121405 21 225 4.8 4.8 0.38 0.61 0.58 92 1022.2
20190420120904 21 202 1.6 4.8 0.38 0.61 0.58 92 1022.3
20190420120403 21 225 3.2 4.8 0.38 0.61 0.58 92 1022.3
20190420115902 21 180 3.2 4.8 0.38 0.61 0.58 91 1022.3
20190420115401 21 180 4.8 6.4 0.38 0.61 0.58 91 1022.4
20190420114900 21 180 3.2 4.8 0.38 0.61 0.58 91 1022.3
20190420114359 21 225 1.6 3.2 0.38 0.61 0.58 90 1022.3
20190420113857 21 90 4.8 4.8 0.36 0.58 0.56 90 1022.6
20190420113357 21 90 1.6 3.2 0.30 0.56 0.53 90 1022.5
20190420112856 21 0 6.4 9.7 0.00 0.23 0.20 89 1022.5
20190420112354 21 225 0.0 1.6 0.00 0.23 0.20 89 1022.3
20190420111853 21 0 0.0 1.6 0.00 0.23 0.20 89 1022.3
20190420111353 21 180 3.2 4.8 0.00 0.23 0.20 89 1022.2
20190420110851 21 90 4.8 6.4 0.00 0.23 0.20 89 1022.5
20190420110350 21 180 4.8 4.8 0.00 0.23 0.20 89 1022.6
20190420105849 21 180 3.2 4.8 0.00 0.23 0.20 89 1022.6
20190420105348 21 180 1.6 4.8 0.00 0.23 0.20 89 1022.5
20190420104847 21 90 6.4 9.7 0.00 0.23 0.20 88 1022.7
20190420104346 21 180 1.6 3.2 0.00 0.23 0.20 88 1022.5
20190420103845 21 90 4.8 6.4 0.00 0.23 0.20 87 1022.6
20190420103344 21 225 3.2 4.8 0.00 0.23 0.20 87 1022.6
20190420102843 21 90 4.8 4.8 0.00 0.23 0.20 86 1022.4
20190420102342 21 90 1.6 3.2 0.00 0.23 0.20 86 1022.5
20190420101841 21 135 6.4 9.7 0.00 0.23 0.20 85 1022.4
20190420101339 21 180 3.2 4.8 0.00 0.23 0.20 84 1022.2
20190420100838 21 90 3.2 4.8 0.00 0.23 0.20 84 1022.4
20190420100337 21 45 4.8 8.0 0.00 0.23 0.20 84 1022.4
20190420095837 21 135 4.8 6.4 0.00 0.23 0.20 83 1022.7
20190420095336 21 157 4.8 4.8 0.00 0.23 0.20 83 1022.5
20190420094834 21 180 6.4 9.7 0.00 0.23 0.20 82 1022.4
20190420094333 21 90 4.8 8.0 0.00 0.23 0.20 82 1022.3
20190420093832 21 180 4.8 8.0 0.00 0.23 0.20 81 1022.1
20190420093331 21 45 12.9 14.5 0.00 0.23 0.20 81 1022.1
20190420092830 21 45 9.7 12.9 0.00 0.23 0.20 82 1022.1
20190420092329 21 0 9.7 12.9 0.00 0.23 0.20 82 1022.2
20190420091327 21 90 9.7 12.9 0.00 0.23 0.20 84 1021.9
20190420090826 21 90 9.7 11.3 0.00 0.23 0.20 85 1021.9
20190420090325 21 90 8.0 9.7 0.00 0.23 0.20 85 1021.8
20190420085823 21 157 3.2 8.0 0.00 0.23 0.20 86 1021.8
20190420085322 21 90 12.9 19.3 0.00 0.23 0.20 87 1021.6
20190420084821 21 45 11.3 14.5 0.00 0.23 0.20 87 1021.7
20190420084320 21 45 6.4 9.7 0.00 0.23 0.20 87 1021.7
20190420083819 21 180 11.3 14.5 0.00 0.23 0.20 87 1021.5
20190420083318 21 135 4.8 8.0 0.00 0.23 0.20 87 1021.4
20190420082817 21 135 9.7 12.9 0.00 0.23 0.20 87 1021.3
20190420082316 21 157 4.8 6.4 0.00 0.23 0.20 86 1021.2
20190420081815 21 180 4.8 6.4 0.00 0.23 0.20 86 1021.2
20190420081314 21 90 8.0 9.7 0.00 0.23 0.20 85 1021.3
20190420080813 22 225 0.0 1.6 0.00 0.23 0.20 85 1021.0
20190420080312 22 135 3.2 4.8 0.00 0.23 0.20 84 1021.0
20190420075811 22 180 6.4 8.0 0.00 0.23 0.20 81 1021.2
20190420075310 22 180 6.4 9.7 0.00 0.23 0.20 80 1021.1
20190420074809 22 112 3.2 8.0 0.00 0.23 0.20 79 1021.1
20190420074308 22 90 3.2 4.8 0.00 0.23 0.20 78 1021.1
20190420073806 22 157 4.8 6.4 0.00 0.23 0.20 78 1021.1
20190420073205 22 135 6.4 9.7 0.00 0.23 0.20 78 1021.3
20190420072704 22 315 4.8 8.0 0.00 0.23 0.20 77 1021.3
20190420072203 23 165 4.8 9.7 0.00 0.23 0.20 76 1021.0
20190420071602 23 90 6.4 9.7 0.00 0.25 0.20 76 1020.8
20190420071100 23 135 9.7 14.5 0.00 0.28 0.20 77 1021.0
20190420070559 23 116 8.0 11.3 0.00 0.53 0.20 77 1020.8
20190420070028 23 90 11.3 14.5 0.00 0.53 0.20 77 1020.9
20190420065526 23 45 4.8 4.8 0.00 0.53 0.20 77 1020.9
20190420065025 23 90 8.0 12.9 0.00 0.53 0.20 76 1020.5
20190420064527 23 0 4.8 4.8 0.00 0.53 0.20 76 1020.6
20190420064423 23 90 8.0 9.7 0.00 0.53 0.20 76 1020.4
20190420063923 23 90 8.0 11.3 0.00 0.53 0.20 76 1020.4
20190420063421 23 114 9.7 11.3 0.00 0.53 0.20 75 1020.3
20190420062820 23 135 6.4 9.7 0.00 0.53 0.20 75 1020.5
20190420062318 23 112 9.7 14.5 0.00 0.53 0.20 75 1020.4
20190420061818 23 30 14.5 24.1 0.00 0.53 0.20 77 1020.4
20190420061216 23 90 4.8 6.4 0.00 0.53 0.20 78 1020.5
20190420060716 23 45 9.7 12.9 0.00 0.53 0.20 78 1020.5
20190420060214 23 90 6.4 9.7 0.00 0.53 0.20 78 1020.3
20190420055613 23 45 9.7 12.9 0.00 0.53 0.20 79 1020.4
20190420055111 23 90 9.7 16.1 0.00 0.53 0.20 79 1020.5
20190420054610 23 49 6.4 9.7 0.00 0.53 0.20 80 1020.2
20190420054008 23 180 11.3 17.7 0.00 0.53 0.20 80 1020.3
20190420053007 23 247 8.0 9.7 0.00 0.53 0.20 80 1020.5
20190420052405 23 45 9.7 14.5 0.00 0.53 0.20 79 1020.6
20190420051904 23 90 9.7 12.9 0.00 0.53 0.20 77 1020.5
20190420051403 23 142 12.9 19.3 0.00 0.53 0.20 76 1020.4
20190420050801 23 135 14.5 17.7 0.00 0.53 0.20 75 1020.3
20190420050301 23 180 9.7 12.9 0.00 0.56 0.20 75 1020.3
20190420045759 23 68 11.3 17.7 0.00 0.56 0.20 74 1020.4
20190420045228 24 90 16.1 30.6 0.00 0.56 0.20 74 1020.3
20190420044727 24 90 6.4 9.7 0.00 0.56 0.20 74 1020.4
20190420044226 24 90 12.9 19.3 0.00 0.56 0.20 75 1020.2
20190420043654 24 45 14.5 19.3 0.00 0.56 0.20 76 1020.4
20190420043153 24 90 8.0 11.3 0.00 0.56 0.20 77 1020.2
20190420042652 24 202 4.8 6.4 0.00 0.56 0.20 76 1020.3
20190420042151 24 157 3.2 4.8 0.00 0.56 0.20 76 1020.4
20190420041651 24 180 8.0 9.7 0.00 0.56 0.20 76 1020.3
20190420041150 24 90 8.0 11.3 0.00 0.56 0.20 76 1020.2
20190420040648 23 180 6.4 9.7 0.00 0.56 0.20 78 1020.4
20190420040147 23 157 8.0 11.3 0.00 0.56 0.20 79 1020.4
20190420035646 23 135 4.8 6.4 0.00 0.56 0.20 79 1020.5
20190420035145 23 90 8.0 9.7 0.00 0.56 0.20 80 1020.6
20190420034644 23 135 17.7 24.1 0.00 0.56 0.20 81 1020.6
20190420034143 23 45 8.0 12.9 0.00 0.56 0.20 82 1020.8
20190420033642 23 157 6.4 9.7 0.00 0.56 0.20 82 1020.8
20190420033141 23 135 4.8 8.0 0.03 0.56 0.20 81 1020.7
20190420032640 23 270 6.4 9.7 0.03 0.56 0.20 81 1020.8
20190420032138 23 45 9.7 14.5 0.03 0.56 0.20 80 1020.9
20190420031633 23 90 14.5 16.1 0.03 0.56 0.20 80 1021.2
20190420031132 23 90 9.7 11.3 0.03 0.56 0.20 79 1021.1
20190420030631 23 135 8.0 11.3 0.03 0.56 0.20 79 1021.0
20190420030130 23 180 11.3 17.7 0.03 0.56 0.20 79 1021.1
20190420025629 23 45 11.3 16.1 0.03 0.56 0.20 79 1021.2
20190420025128 23 112 14.5 17.7 0.03 0.56 0.20 79 1021.3
20190420024626 22 180 12.9 19.3 0.03 0.56 0.20 80 1021.1
20190420024121 22 157 20.9 27.4 0.03 0.56 0.20 81 1021.2
20190420023620 22 90 19.3 24.1 0.05 0.56 0.20 82 1021.4
20190420023119 22 45 9.7 12.9 0.05 0.53 0.18 83 1021.4
20190420022618 22 180 6.4 9.7 0.13 0.53 0.18 83 1021.5
20190420022117 22 90 6.4 9.7 0.13 0.53 0.18 83 1021.5
20190420021618 22 90 9.7 14.5 0.13 0.53 0.18 83 1021.6
20190420021115 22 90 16.1 19.3 0.13 0.53 0.18 83 1021.7
20190420020609 22 135 6.4 9.7 0.13 0.53 0.18 83 1022.1
20190420020108 22 135 6.4 9.7 0.13 0.53 0.18 84 1022.1
20190420015607 22 90 14.5 19.3 0.13 0.53 0.18 84 1022.2
20190420015106 22 135 6.4 11.3 0.13 0.53 0.18 83 1022.2
20190420014604 22 112 11.3 14.5 0.13 0.53 0.18 82 1022.3
20190420014104 22 90 8.0 9.7 0.13 0.53 0.18 80 1022.4
20190420013603 23 90 9.7 16.1 0.10 0.51 0.13 77 1022.4
20190420013053 24 90 14.5 17.7 0.08 0.46 0.10 74 1022.4
20190420012552 25 180 12.9 19.3 0.00 0.38 0.03 73 1022.4
20190420012050 25 90 12.9 14.5 0.00 0.38 0.03 71 1022.3
20190420011545 25 90 14.5 17.7 0.00 0.38 0.03 71 1022.4
20190420011044 26 90 17.7 22.5 0.00 0.38 0.03 68 1022.4
20190420010543 26 135 14.5 20.9 0.00 0.38 0.03 70 1022.5
20190420010045 26 135 14.5 20.9 0.00 0.38 0.03 70 1022.6
20190420005541 25 90 17.7 24.1 0.00 0.38 0.03 71 1022.6
20190420005040 25 90 17.7 24.1 0.00 0.38 0.03 71 1022.7
20190420004538 25 90 14.5 19.3 0.00 0.38 0.03 71 1022.7
20190420004033 25 90 14.5 17.7 0.00 0.38 0.03 72 1022.8
20190420003453 25 315 6.4 9.7 0.00 0.38 0.03 72 1023.0
20190420002952 25 45 9.7 14.5 0.00 0.38 0.03 72 1023.1
20190420002451 25 90 9.7 16.1 0.00 0.38 0.03 73 1023.1
20190420001945 24 135 12.9 17.7 0.00 0.38 0.03 72 1023.1